sensor_id;sensor_type;location;lat;lon;timestamp;P1;durP1;ratioP1;P2;durP2;ratioP2
64011;SDS011;50211;52.768;12.124;2022-09-09T00:01:37;13.75;;;8.25;;
64011;SDS011;50211;52.768;12.124;2022-09-09T00:04:28;13.60;;;9.25;;
64011;SDS011;50211;52.768;12.124;2022-09-09T00:07:07;14.25;;;9.27;;
64011;SDS011;50211;52.768;12.124;2022-09-09T00:10:03;14.57;;;9.13;;
64011;SDS011;50211;52.768;12.124;2022-09-09T00:12:42;17.35;;;8.60;;
64011;SDS011;50211;52.768;12.124;2022-09-09T00:15:20;11.05;;;7.40;;
64011;SDS011;50211;52.768;12.124;2022-09-09T00:17:52;11.73;;;7.93;;
64011;SDS011;50211;52.768;12.124;2022-09-09T00:20:35;11.15;;;7.78;;
64011;SDS011;50211;52.768;12.124;2022-09-09T00:23:28;76.55;;;8.48;;
64011;SDS011;50211;52.768;12.124;2022-09-09T00:28:35;130.00;;;9.95;;
64011;SDS011;50211;52.768;12.124;2022-09-09T00:31:08;25.35;;;6.95;;
64011;SDS011;50211;52.768;12.124;2022-09-09T00:33:38;9.15;;;6.25;;
64011;SDS011;50211;52.768;12.124;2022-09-09T00:36:09;13.15;;;6.28;;
64011;SDS011;50211;52.768;12.124;2022-09-09T00:38:43;11.07;;;7.18;;
64011;SDS011;50211;52.768;12.124;2022-09-09T00:41:20;12.48;;;7.95;;
64011;SDS011;50211;52.768;12.124;2022-09-09T00:43:56;11.88;;;7.45;;
64011;SDS011;50211;52.768;12.124;2022-09-09T00:49:03;17.73;;;10.55;;
64011;SDS011;50211;52.768;12.124;2022-09-09T00:51:44;14.30;;;9.27;;
64011;SDS011;50211;52.768;12.124;2022-09-09T00:59:46;13.70;;;8.95;;
64011;SDS011;50211;52.768;12.124;2022-09-09T01:02:16;15.18;;;9.18;;
64011;SDS011;50211;52.768;12.124;2022-09-09T01:04:53;11.95;;;8.05;;
64011;SDS011;50211;52.768;12.124;2022-09-09T01:07:19;14.52;;;9.23;;
64011;SDS011;50211;52.768;12.124;2022-09-09T01:09:52;13.23;;;8.50;;
64011;SDS011;50211;52.768;12.124;2022-09-09T01:15:08;12.35;;;7.97;;
64011;SDS011;50211;52.768;12.124;2022-09-09T01:17:46;12.65;;;7.65;;
64011;SDS011;50211;52.768;12.124;2022-09-09T01:20:15;11.52;;;7.55;;
64011;SDS011;50211;52.768;12.124;2022-09-09T01:28:41;11.43;;;6.40;;
64011;SDS011;50211;52.768;12.124;2022-09-09T01:31:11;11.38;;;5.75;;
64011;SDS011;50211;52.768;12.124;2022-09-09T01:33:42;8.95;;;6.50;;
64011;SDS011;50211;52.768;12.124;2022-09-09T01:36:19;9.55;;;6.40;;
64011;SDS011;50211;52.768;12.124;2022-09-09T01:38:52;15.20;;;7.63;;
64011;SDS011;50211;52.768;12.124;2022-09-09T01:41:18;12.05;;;8.13;;
64011;SDS011;50211;52.768;12.124;2022-09-09T01:43:45;15.50;;;8.40;;
64011;SDS011;50211;52.768;12.124;2022-09-09T01:46:12;17.00;;;8.25;;
64011;SDS011;50211;52.768;12.124;2022-09-09T01:48:38;13.60;;;8.93;;
64011;SDS011;50211;52.768;12.124;2022-09-09T01:51:05;18.63;;;10.40;;
64011;SDS011;50211;52.768;12.124;2022-09-09T01:53:32;18.40;;;9.80;;
64011;SDS011;50211;52.768;12.124;2022-09-09T01:56:04;18.63;;;9.18;;
64011;SDS011;50211;52.768;12.124;2022-09-09T01:59:07;14.65;;;8.82;;
64011;SDS011;50211;52.768;12.124;2022-09-09T02:07:04;17.23;;;8.73;;
64011;SDS011;50211;52.768;12.124;2022-09-09T02:09:36;16.50;;;9.00;;
64011;SDS011;50211;52.768;12.124;2022-09-09T02:12:08;14.38;;;8.73;;
64011;SDS011;50211;52.768;12.124;2022-09-09T02:14:39;14.90;;;8.88;;
64011;SDS011;50211;52.768;12.124;2022-09-09T02:17:10;14.10;;;8.50;;
64011;SDS011;50211;52.768;12.124;2022-09-09T02:19:42;13.55;;;8.20;;
64011;SDS011;50211;52.768;12.124;2022-09-09T02:22:17;12.43;;;7.07;;
64011;SDS011;50211;52.768;12.124;2022-09-09T02:24:45;14.07;;;8.02;;
64011;SDS011;50211;52.768;12.124;2022-09-09T02:27:12;11.40;;;8.18;;
64011;SDS011;50211;52.768;12.124;2022-09-09T02:29:42;14.82;;;8.25;;
64011;SDS011;50211;52.768;12.124;2022-09-09T02:32:13;12.00;;;7.82;;
64011;SDS011;50211;52.768;12.124;2022-09-09T02:34:44;11.15;;;7.45;;
64011;SDS011;50211;52.768;12.124;2022-09-09T02:37:14;13.98;;;8.93;;
64011;SDS011;50211;52.768;12.124;2022-09-09T02:39:43;12.80;;;7.75;;
64011;SDS011;50211;52.768;12.124;2022-09-09T02:42:09;15.10;;;7.47;;
64011;SDS011;50211;52.768;12.124;2022-09-09T02:44:34;11.88;;;7.65;;
64011;SDS011;50211;52.768;12.124;2022-09-09T02:47:44;11.60;;;7.25;;
64011;SDS011;50211;52.768;12.124;2022-09-09T02:50:14;9.85;;;7.32;;
64011;SDS011;50211;52.768;12.124;2022-09-09T02:52:45;12.00;;;7.35;;
64011;SDS011;50211;52.768;12.124;2022-09-09T02:55:17;9.90;;;6.75;;
64011;SDS011;50211;52.768;12.124;2022-09-09T02:57:53;9.52;;;6.65;;
64011;SDS011;50211;52.768;12.124;2022-09-09T03:00:24;10.65;;;6.05;;
64011;SDS011;50211;52.768;12.124;2022-09-09T03:02:52;10.57;;;6.93;;
64011;SDS011;50211;52.768;12.124;2022-09-09T03:05:19;10.85;;;6.97;;
64011;SDS011;50211;52.768;12.124;2022-09-09T03:07:47;9.45;;;7.00;;
64011;SDS011;50211;52.768;12.124;2022-09-09T03:10:15;13.40;;;7.43;;
64011;SDS011;50211;52.768;12.124;2022-09-09T03:12:43;10.38;;;7.35;;
64011;SDS011;50211;52.768;12.124;2022-09-09T03:15:08;10.63;;;7.22;;
64011;SDS011;50211;52.768;12.124;2022-09-09T03:17:37;9.23;;;5.57;;
64011;SDS011;50211;52.768;12.124;2022-09-09T03:20:05;9.18;;;5.93;;
64011;SDS011;50211;52.768;12.124;2022-09-09T03:22:33;11.18;;;7.00;;
64011;SDS011;50211;52.768;12.124;2022-09-09T03:25:00;7.20;;;4.97;;
64011;SDS011;50211;52.768;12.124;2022-09-09T03:27:27;10.05;;;5.63;;
64011;SDS011;50211;52.768;12.124;2022-09-09T03:29:53;8.43;;;5.57;;
64011;SDS011;50211;52.768;12.124;2022-09-09T03:32:19;7.00;;;5.18;;
64011;SDS011;50211;52.768;12.124;2022-09-09T03:34:47;12.13;;;6.00;;
64011;SDS011;50211;52.768;12.124;2022-09-09T03:37:14;6.90;;;5.15;;
64011;SDS011;50211;52.768;12.124;2022-09-09T03:39:42;8.25;;;5.60;;
64011;SDS011;50211;52.768;12.124;2022-09-09T03:42:08;6.68;;;4.68;;
64011;SDS011;50211;52.768;12.124;2022-09-09T03:44:34;6.60;;;4.45;;
64011;SDS011;50211;52.768;12.124;2022-09-09T03:46:59;6.95;;;4.32;;
64011;SDS011;50211;52.768;12.124;2022-09-09T03:49:27;9.32;;;4.88;;
64011;SDS011;50211;52.768;12.124;2022-09-09T03:51:53;7.47;;;4.68;;
64011;SDS011;50211;52.768;12.124;2022-09-09T03:54:23;7.25;;;5.20;;
64011;SDS011;50211;52.768;12.124;2022-09-09T03:56:49;8.52;;;5.20;;
64011;SDS011;50211;52.768;12.124;2022-09-09T03:59:17;8.00;;;5.20;;
64011;SDS011;50211;52.768;12.124;2022-09-09T04:01:42;8.05;;;4.95;;
64011;SDS011;50211;52.768;12.124;2022-09-09T04:04:09;7.32;;;5.03;;
64011;SDS011;50211;52.768;12.124;2022-09-09T04:06:34;11.68;;;5.43;;
64011;SDS011;50211;52.768;12.124;2022-09-09T04:09:02;8.48;;;5.03;;
64011;SDS011;50211;52.768;12.124;2022-09-09T04:11:28;9.30;;;5.53;;
64011;SDS011;50211;52.768;12.124;2022-09-09T04:13:53;9.00;;;4.95;;
64011;SDS011;50211;52.768;12.124;2022-09-09T04:16:19;8.18;;;5.75;;
64011;SDS011;50211;52.768;12.124;2022-09-09T04:18:45;9.77;;;5.68;;
64011;SDS011;50211;52.768;12.124;2022-09-09T04:21:11;6.68;;;5.07;;
64011;SDS011;50211;52.768;12.124;2022-09-09T04:23:39;7.05;;;4.80;;
64011;SDS011;50211;52.768;12.124;2022-09-09T04:26:07;6.18;;;4.30;;
64011;SDS011;50211;52.768;12.124;2022-09-09T04:28:34;7.28;;;4.82;;
64011;SDS011;50211;52.768;12.124;2022-09-09T04:31:05;6.90;;;4.32;;
64011;SDS011;50211;52.768;12.124;2022-09-09T04:33:32;9.18;;;4.22;;
64011;SDS011;50211;52.768;12.124;2022-09-09T04:36:00;4.72;;;3.40;;
64011;SDS011;50211;52.768;12.124;2022-09-09T04:38:26;5.90;;;4.00;;
64011;SDS011;50211;52.768;12.124;2022-09-09T04:40:51;6.38;;;4.22;;
64011;SDS011;50211;52.768;12.124;2022-09-09T04:43:18;6.32;;;4.80;;
64011;SDS011;50211;52.768;12.124;2022-09-09T04:45:47;6.15;;;4.40;;
64011;SDS011;50211;52.768;12.124;2022-09-09T04:48:13;14.77;;;4.50;;
64011;SDS011;50211;52.768;12.124;2022-09-09T04:50:39;7.88;;;4.43;;
64011;SDS011;50211;52.768;12.124;2022-09-09T04:53:06;6.85;;;4.38;;
64011;SDS011;50211;52.768;12.124;2022-09-09T04:55:32;6.18;;;4.57;;
64011;SDS011;50211;52.768;12.124;2022-09-09T04:58:03;5.88;;;4.47;;
64011;SDS011;50211;52.768;12.124;2022-09-09T05:00:30;9.07;;;4.90;;
64011;SDS011;50211;52.768;12.124;2022-09-09T05:02:55;4.97;;;3.80;;
64011;SDS011;50211;52.768;12.124;2022-09-09T05:05:23;7.18;;;4.65;;
64011;SDS011;50211;52.768;12.124;2022-09-09T05:07:50;6.45;;;4.68;;
64011;SDS011;50211;52.768;12.124;2022-09-09T05:10:15;8.77;;;4.60;;
64011;SDS011;50211;52.768;12.124;2022-09-09T05:12:42;5.97;;;3.83;;
64011;SDS011;50211;52.768;12.124;2022-09-09T05:15:16;5.50;;;4.43;;
64011;SDS011;50211;52.768;12.124;2022-09-09T05:17:42;5.32;;;4.00;;
64011;SDS011;50211;52.768;12.124;2022-09-09T05:20:07;6.95;;;4.15;;
64011;SDS011;50211;52.768;12.124;2022-09-09T05:22:33;7.80;;;4.25;;
64011;SDS011;50211;52.768;12.124;2022-09-09T05:24:59;6.97;;;4.72;;
64011;SDS011;50211;52.768;12.124;2022-09-09T05:27:26;4.93;;;3.80;;
64011;SDS011;50211;52.768;12.124;2022-09-09T05:29:51;5.53;;;4.38;;
64011;SDS011;50211;52.768;12.124;2022-09-09T05:32:16;6.40;;;3.60;;
64011;SDS011;50211;52.768;12.124;2022-09-09T05:34:42;5.93;;;4.20;;
64011;SDS011;50211;52.768;12.124;2022-09-09T05:37:07;8.82;;;5.38;;
64011;SDS011;50211;52.768;12.124;2022-09-09T05:39:33;6.35;;;4.38;;
64011;SDS011;50211;52.768;12.124;2022-09-09T05:42:01;6.43;;;4.57;;
64011;SDS011;50211;52.768;12.124;2022-09-09T05:44:27;6.60;;;5.03;;
64011;SDS011;50211;52.768;12.124;2022-09-09T05:46:54;6.57;;;4.63;;
64011;SDS011;50211;52.768;12.124;2022-09-09T05:49:19;7.22;;;4.93;;
64011;SDS011;50211;52.768;12.124;2022-09-09T05:51:45;11.77;;;5.40;;
64011;SDS011;50211;52.768;12.124;2022-09-09T05:54:11;9.40;;;5.20;;
64011;SDS011;50211;52.768;12.124;2022-09-09T05:56:40;12.73;;;5.47;;
64011;SDS011;50211;52.768;12.124;2022-09-09T05:59:05;7.18;;;5.18;;
64011;SDS011;50211;52.768;12.124;2022-09-09T06:01:32;8.75;;;5.45;;
64011;SDS011;50211;52.768;12.124;2022-09-09T06:03:59;8.88;;;5.50;;
64011;SDS011;50211;52.768;12.124;2022-09-09T06:06:26;8.30;;;5.55;;
64011;SDS011;50211;52.768;12.124;2022-09-09T06:08:55;6.32;;;4.80;;
64011;SDS011;50211;52.768;12.124;2022-09-09T06:11:26;10.18;;;5.85;;
64011;SDS011;50211;52.768;12.124;2022-09-09T06:13:55;8.00;;;5.53;;
64011;SDS011;50211;52.768;12.124;2022-09-09T06:16:22;7.32;;;5.18;;
64011;SDS011;50211;52.768;12.124;2022-09-09T06:18:49;9.90;;;5.50;;
64011;SDS011;50211;52.768;12.124;2022-09-09T06:21:16;6.65;;;5.20;;
64011;SDS011;50211;52.768;12.124;2022-09-09T06:23:44;8.70;;;5.72;;
64011;SDS011;50211;52.768;12.124;2022-09-09T06:26:11;12.77;;;6.43;;
64011;SDS011;50211;52.768;12.124;2022-09-09T06:28:37;8.40;;;5.60;;
64011;SDS011;50211;52.768;12.124;2022-09-09T06:31:03;7.38;;;5.53;;
64011;SDS011;50211;52.768;12.124;2022-09-09T06:33:30;8.90;;;6.00;;
64011;SDS011;50211;52.768;12.124;2022-09-09T06:35:59;7.65;;;5.40;;
64011;SDS011;50211;52.768;12.124;2022-09-09T06:38:26;7.55;;;5.35;;
64011;SDS011;50211;52.768;12.124;2022-09-09T06:40:56;9.55;;;5.25;;
64011;SDS011;50211;52.768;12.124;2022-09-09T06:43:23;12.30;;;5.25;;
64011;SDS011;50211;52.768;12.124;2022-09-09T06:45:56;9.65;;;4.70;;
64011;SDS011;50211;52.768;12.124;2022-09-09T06:48:26;6.57;;;4.55;;
64011;SDS011;50211;52.768;12.124;2022-09-09T06:51:12;9.18;;;4.22;;
64011;SDS011;50211;52.768;12.124;2022-09-09T06:53:46;5.47;;;4.10;;
64011;SDS011;50211;52.768;12.124;2022-09-09T06:56:19;8.50;;;3.78;;
64011;SDS011;50211;52.768;12.124;2022-09-09T06:58:56;4.15;;;3.13;;
64011;SDS011;50211;52.768;12.124;2022-09-09T07:01:30;8.88;;;3.38;;
64011;SDS011;50211;52.768;12.124;2022-09-09T07:03:57;6.18;;;3.20;;
64011;SDS011;50211;52.768;12.124;2022-09-09T07:06:34;4.90;;;3.00;;
64011;SDS011;50211;52.768;12.124;2022-09-09T07:09:05;6.35;;;3.42;;
64011;SDS011;50211;52.768;12.124;2022-09-09T07:11:42;7.07;;;3.58;;
64011;SDS011;50211;52.768;12.124;2022-09-09T07:14:09;3.45;;;3.13;;
64011;SDS011;50211;52.768;12.124;2022-09-09T07:16:39;7.35;;;3.20;;
64011;SDS011;50211;52.768;12.124;2022-09-09T07:19:05;7.07;;;3.08;;
64011;SDS011;50211;52.768;12.124;2022-09-09T07:21:31;6.93;;;3.10;;
64011;SDS011;50211;52.768;12.124;2022-09-09T07:23:57;6.20;;;3.60;;
64011;SDS011;50211;52.768;12.124;2022-09-09T07:26:24;5.82;;;3.20;;
64011;SDS011;50211;52.768;12.124;2022-09-09T07:28:51;7.78;;;3.00;;
64011;SDS011;50211;52.768;12.124;2022-09-09T07:31:21;9.57;;;3.17;;
64011;SDS011;50211;52.768;12.124;2022-09-09T07:33:51;6.93;;;3.10;;
64011;SDS011;50211;52.768;12.124;2022-09-09T07:36:19;6.03;;;3.05;;
64011;SDS011;50211;52.768;12.124;2022-09-09T07:38:50;5.03;;;3.05;;
64011;SDS011;50211;52.768;12.124;2022-09-09T07:41:21;7.35;;;3.40;;
64011;SDS011;50211;52.768;12.124;2022-09-09T07:43:52;8.77;;;3.00;;
64011;SDS011;50211;52.768;12.124;2022-09-09T07:46:22;7.72;;;2.85;;
64011;SDS011;50211;52.768;12.124;2022-09-09T07:48:49;6.80;;;3.55;;
64011;SDS011;50211;52.768;12.124;2022-09-09T07:51:42;4.75;;;2.83;;
64011;SDS011;50211;52.768;12.124;2022-09-09T07:54:09;7.15;;;3.22;;
64011;SDS011;50211;52.768;12.124;2022-09-09T07:56:36;5.47;;;2.92;;
64011;SDS011;50211;52.768;12.124;2022-09-09T07:59:02;4.80;;;2.70;;
64011;SDS011;50211;52.768;12.124;2022-09-09T08:01:32;4.90;;;2.97;;
64011;SDS011;50211;52.768;12.124;2022-09-09T08:04:04;6.13;;;2.88;;
64011;SDS011;50211;52.768;12.124;2022-09-09T08:06:33;4.50;;;2.83;;
64011;SDS011;50211;52.768;12.124;2022-09-09T08:09:02;5.85;;;2.60;;
64011;SDS011;50211;52.768;12.124;2022-09-09T08:11:29;5.20;;;2.50;;
64011;SDS011;50211;52.768;12.124;2022-09-09T08:13:55;7.63;;;2.60;;
64011;SDS011;50211;52.768;12.124;2022-09-09T08:16:31;4.30;;;2.33;;
64011;SDS011;50211;52.768;12.124;2022-09-09T08:18:58;5.90;;;2.08;;
64011;SDS011;50211;52.768;12.124;2022-09-09T08:21:25;3.70;;;2.40;;
64011;SDS011;50211;52.768;12.124;2022-09-09T08:23:53;5.88;;;2.15;;
64011;SDS011;50211;52.768;12.124;2022-09-09T08:26:20;3.28;;;2.30;;
64011;SDS011;50211;52.768;12.124;2022-09-09T08:28:48;4.40;;;2.10;;
64011;SDS011;50211;52.768;12.124;2022-09-09T08:31:17;7.20;;;2.65;;
64011;SDS011;50211;52.768;12.124;2022-09-09T08:33:45;9.43;;;1.95;;
64011;SDS011;50211;52.768;12.124;2022-09-09T08:36:12;5.13;;;1.95;;
64011;SDS011;50211;52.768;12.124;2022-09-09T08:38:40;5.10;;;2.38;;
64011;SDS011;50211;52.768;12.124;2022-09-09T08:52:21;5.45;;;2.00;;
64011;SDS011;50211;52.768;12.124;2022-09-09T08:54:50;4.57;;;2.03;;
64011;SDS011;50211;52.768;12.124;2022-09-09T08:57:21;5.15;;;2.25;;
64011;SDS011;50211;52.768;12.124;2022-09-09T08:59:53;7.85;;;2.50;;
64011;SDS011;50211;52.768;12.124;2022-09-09T09:02:24;5.03;;;2.00;;
64011;SDS011;50211;52.768;12.124;2022-09-09T09:04:58;7.30;;;2.50;;
64011;SDS011;50211;52.768;12.124;2022-09-09T09:08:07;5.57;;;2.00;;
64011;SDS011;50211;52.768;12.124;2022-09-09T09:10:45;4.15;;;1.92;;
64011;SDS011;50211;52.768;12.124;2022-09-09T09:13:14;9.48;;;2.10;;
64011;SDS011;50211;52.768;12.124;2022-09-09T09:15:46;5.45;;;1.75;;
64011;SDS011;50211;52.768;12.124;2022-09-09T09:18:17;10.15;;;1.75;;
64011;SDS011;50211;52.768;12.124;2022-09-09T09:20:46;5.90;;;2.10;;
64011;SDS011;50211;52.768;12.124;2022-09-09T09:23:29;4.30;;;1.75;;
64011;SDS011;50211;52.768;12.124;2022-09-09T09:26:06;4.63;;;2.15;;
64011;SDS011;50211;52.768;12.124;2022-09-09T09:28:35;10.73;;;2.38;;
64011;SDS011;50211;52.768;12.124;2022-09-09T09:31:05;5.78;;;1.67;;
64011;SDS011;50211;52.768;12.124;2022-09-09T09:33:35;2.50;;;1.55;;
64011;SDS011;50211;52.768;12.124;2022-09-09T09:36:17;7.22;;;2.10;;
64011;SDS011;50211;52.768;12.124;2022-09-09T09:38:54;3.25;;;1.30;;
64011;SDS011;50211;52.768;12.124;2022-09-09T09:41:31;4.47;;;1.88;;
64011;SDS011;50211;52.768;12.124;2022-09-09T09:44:26;4.93;;;1.95;;
64011;SDS011;50211;52.768;12.124;2022-09-09T09:47:05;2.42;;;1.50;;
64011;SDS011;50211;52.768;12.124;2022-09-09T09:49:38;5.22;;;1.70;;
64011;SDS011;50211;52.768;12.124;2022-09-09T09:52:04;4.40;;;1.55;;
64011;SDS011;50211;52.768;12.124;2022-09-09T09:54:32;3.88;;;1.92;;
64011;SDS011;50211;52.768;12.124;2022-09-09T09:57:11;8.80;;;1.90;;
64011;SDS011;50211;52.768;12.124;2022-09-09T09:59:39;4.10;;;1.45;;
64011;SDS011;50211;52.768;12.124;2022-09-09T10:02:15;4.25;;;1.77;;
64011;SDS011;50211;52.768;12.124;2022-09-09T10:04:48;5.20;;;1.85;;
64011;SDS011;50211;52.768;12.124;2022-09-09T10:07:20;8.93;;;1.70;;
64011;SDS011;50211;52.768;12.124;2022-09-09T10:09:54;4.03;;;1.50;;
64011;SDS011;50211;52.768;12.124;2022-09-09T10:12:27;3.17;;;1.20;;
64011;SDS011;50211;52.768;12.124;2022-09-09T10:15:02;4.43;;;1.60;;
64011;SDS011;50211;52.768;12.124;2022-09-09T10:18:01;4.82;;;1.42;;
64011;SDS011;50211;52.768;12.124;2022-09-09T10:20:44;3.63;;;1.42;;
64011;SDS011;50211;52.768;12.124;2022-09-09T10:26:29;4.55;;;1.30;;
64011;SDS011;50211;52.768;12.124;2022-09-09T10:29:17;6.90;;;1.55;;
64011;SDS011;50211;52.768;12.124;2022-09-09T10:34:57;4.68;;;1.45;;
64011;SDS011;50211;52.768;12.124;2022-09-09T10:37:41;5.07;;;1.30;;
64011;SDS011;50211;52.768;12.124;2022-09-09T10:40:24;4.63;;;1.40;;
64011;SDS011;50211;52.768;12.124;2022-09-09T10:46:56;6.85;;;1.80;;
64011;SDS011;50211;52.768;12.124;2022-09-09T10:52:32;5.70;;;1.42;;
64011;SDS011;50211;52.768;12.124;2022-09-09T10:55:02;2.72;;;1.35;;
64011;SDS011;50211;52.768;12.124;2022-09-09T10:57:51;3.60;;;1.40;;
64011;SDS011;50211;52.768;12.124;2022-09-09T11:00:20;1.85;;;1.10;;
64011;SDS011;50211;52.768;12.124;2022-09-09T11:02:58;5.53;;;1.40;;
64011;SDS011;50211;52.768;12.124;2022-09-09T11:05:31;4.53;;;1.02;;
64011;SDS011;50211;52.768;12.124;2022-09-09T11:08:14;3.30;;;1.52;;
64011;SDS011;50211;52.768;12.124;2022-09-09T11:10:45;2.65;;;1.10;;
64011;SDS011;50211;52.768;12.124;2022-09-09T11:13:24;4.72;;;1.42;;
64011;SDS011;50211;52.768;12.124;2022-09-09T11:16:04;2.90;;;0.90;;
64011;SDS011;50211;52.768;12.124;2022-09-09T11:18:44;2.13;;;1.10;;
64011;SDS011;50211;52.768;12.124;2022-09-09T11:21:15;5.35;;;1.55;;
64011;SDS011;50211;52.768;12.124;2022-09-09T11:23:49;2.10;;;1.02;;
64011;SDS011;50211;52.768;12.124;2022-09-09T11:26:28;3.47;;;1.30;;
64011;SDS011;50211;52.768;12.124;2022-09-09T11:31:47;5.00;;;1.25;;
64011;SDS011;50211;52.768;12.124;2022-09-09T11:40:23;1.73;;;1.17;;
64011;SDS011;50211;52.768;12.124;2022-09-09T11:43:09;2.28;;;1.17;;
64011;SDS011;50211;52.768;12.124;2022-09-09T11:45:51;3.88;;;1.30;;
64011;SDS011;50211;52.768;12.124;2022-09-09T11:48:23;3.33;;;1.40;;
64011;SDS011;50211;52.768;12.124;2022-09-09T11:51:00;4.63;;;1.50;;
64011;SDS011;50211;52.768;12.124;2022-09-09T11:53:29;2.70;;;1.10;;
64011;SDS011;50211;52.768;12.124;2022-09-09T11:58:29;5.30;;;1.40;;
64011;SDS011;50211;52.768;12.124;2022-09-09T12:01:01;3.60;;;1.02;;
64011;SDS011;50211;52.768;12.124;2022-09-09T12:03:45;1.30;;;0.90;;
64011;SDS011;50211;52.768;12.124;2022-09-09T12:09:06;5.53;;;1.30;;
64011;SDS011;50211;52.768;12.124;2022-09-09T12:11:48;2.25;;;1.40;;
64011;SDS011;50211;52.768;12.124;2022-09-09T12:17:20;9.45;;;1.65;;
64011;SDS011;50211;52.768;12.124;2022-09-09T12:19:46;3.15;;;1.20;;
64011;SDS011;50211;52.768;12.124;2022-09-09T12:22:19;3.28;;;1.40;;
64011;SDS011;50211;52.768;12.124;2022-09-09T12:25:09;8.25;;;1.70;;
64011;SDS011;50211;52.768;12.124;2022-09-09T12:28:01;4.50;;;1.73;;
64011;SDS011;50211;52.768;12.124;2022-09-09T12:30:33;7.38;;;1.48;;
64011;SDS011;50211;52.768;12.124;2022-09-09T12:33:10;4.30;;;1.00;;
64011;SDS011;50211;52.768;12.124;2022-09-09T12:35:40;4.03;;;1.10;;
64011;SDS011;50211;52.768;12.124;2022-09-09T12:38:11;4.63;;;1.30;;
64011;SDS011;50211;52.768;12.124;2022-09-09T12:40:53;2.85;;;1.10;;
64011;SDS011;50211;52.768;12.124;2022-09-09T12:43:23;3.58;;;1.27;;
64011;SDS011;50211;52.768;12.124;2022-09-09T12:45:51;2.50;;;1.20;;
64011;SDS011;50211;52.768;12.124;2022-09-09T12:48:22;2.55;;;0.90;;
64011;SDS011;50211;52.768;12.124;2022-09-09T12:50:52;2.88;;;1.10;;
64011;SDS011;50211;52.768;12.124;2022-09-09T12:53:22;3.38;;;1.27;;
64011;SDS011;50211;52.768;12.124;2022-09-09T12:55:58;5.65;;;1.13;;
64011;SDS011;50211;52.768;12.124;2022-09-09T12:58:35;3.88;;;1.20;;
64011;SDS011;50211;52.768;12.124;2022-09-09T13:01:02;2.55;;;1.10;;
64011;SDS011;50211;52.768;12.124;2022-09-09T13:03:30;2.97;;;1.10;;
64011;SDS011;50211;52.768;12.124;2022-09-09T13:06:10;3.05;;;1.23;;
64011;SDS011;50211;52.768;12.124;2022-09-09T13:08:39;4.88;;;1.30;;
64011;SDS011;50211;52.768;12.124;2022-09-09T13:11:16;4.75;;;1.30;;
64011;SDS011;50211;52.768;12.124;2022-09-09T13:13:50;2.55;;;1.20;;
64011;SDS011;50211;52.768;12.124;2022-09-09T13:16:19;5.05;;;1.20;;
64011;SDS011;50211;52.768;12.124;2022-09-09T13:18:50;3.58;;;1.30;;
64011;SDS011;50211;52.768;12.124;2022-09-09T13:21:16;6.65;;;1.98;;
64011;SDS011;50211;52.768;12.124;2022-09-09T13:23:47;4.28;;;1.50;;
64011;SDS011;50211;52.768;12.124;2022-09-09T13:26:24;3.38;;;1.27;;
64011;SDS011;50211;52.768;12.124;2022-09-09T13:28:51;6.93;;;1.10;;
64011;SDS011;50211;52.768;12.124;2022-09-09T13:31:32;6.13;;;1.35;;
64011;SDS011;50211;52.768;12.124;2022-09-09T13:34:10;4.78;;;1.23;;
64011;SDS011;50211;52.768;12.124;2022-09-09T13:36:39;5.18;;;1.27;;
64011;SDS011;50211;52.768;12.124;2022-09-09T13:39:13;6.15;;;1.45;;
64011;SDS011;50211;52.768;12.124;2022-09-09T13:41:43;3.85;;;1.20;;
64011;SDS011;50211;52.768;12.124;2022-09-09T13:44:22;4.30;;;1.17;;
64011;SDS011;50211;52.768;12.124;2022-09-09T13:49:46;4.93;;;1.08;;
64011;SDS011;50211;52.768;12.124;2022-09-09T13:52:13;3.17;;;0.77;;
64011;SDS011;50211;52.768;12.124;2022-09-09T13:54:43;3.17;;;1.10;;
64011;SDS011;50211;52.768;12.124;2022-09-09T13:57:19;3.03;;;1.17;;
64011;SDS011;50211;52.768;12.124;2022-09-09T13:59:50;6.47;;;2.88;;
64011;SDS011;50211;52.768;12.124;2022-09-09T14:02:16;3.55;;;0.85;;
64011;SDS011;50211;52.768;12.124;2022-09-09T14:04:42;4.68;;;0.88;;
64011;SDS011;50211;52.768;12.124;2022-09-09T14:07:11;3.47;;;1.15;;
64011;SDS011;50211;52.768;12.124;2022-09-09T14:09:39;6.22;;;0.90;;
64011;SDS011;50211;52.768;12.124;2022-09-09T14:12:05;1.95;;;1.20;;
64011;SDS011;50211;52.768;12.124;2022-09-09T14:14:37;4.25;;;1.00;;
64011;SDS011;50211;52.768;12.124;2022-09-09T14:17:03;3.50;;;1.00;;
64011;SDS011;50211;52.768;12.124;2022-09-09T14:19:29;2.05;;;1.10;;
64011;SDS011;50211;52.768;12.124;2022-09-09T14:21:56;3.08;;;1.05;;
64011;SDS011;50211;52.768;12.124;2022-09-09T14:24:22;5.07;;;1.08;;
64011;SDS011;50211;52.768;12.124;2022-09-09T14:26:47;3.90;;;1.08;;
64011;SDS011;50211;52.768;12.124;2022-09-09T14:29:13;2.00;;;0.82;;
64011;SDS011;50211;52.768;12.124;2022-09-09T14:31:38;5.38;;;1.23;;
64011;SDS011;50211;52.768;12.124;2022-09-09T14:34:04;4.60;;;1.17;;
64011;SDS011;50211;52.768;12.124;2022-09-09T14:36:30;4.70;;;1.20;;
64011;SDS011;50211;52.768;12.124;2022-09-09T14:38:56;4.78;;;1.45;;
64011;SDS011;50211;52.768;12.124;2022-09-09T14:41:22;8.57;;;2.28;;
64011;SDS011;50211;52.768;12.124;2022-09-09T14:43:48;2.90;;;1.10;;
64011;SDS011;50211;52.768;12.124;2022-09-09T14:46:15;4.55;;;1.17;;
64011;SDS011;50211;52.768;12.124;2022-09-09T14:48:42;4.18;;;1.27;;
64011;SDS011;50211;52.768;12.124;2022-09-09T14:51:09;6.15;;;1.10;;
64011;SDS011;50211;52.768;12.124;2022-09-09T14:53:44;6.22;;;1.30;;
64011;SDS011;50211;52.768;12.124;2022-09-09T14:56:11;2.20;;;1.20;;
64011;SDS011;50211;52.768;12.124;2022-09-09T14:58:38;3.67;;;1.30;;
64011;SDS011;50211;52.768;12.124;2022-09-09T15:01:04;4.88;;;1.23;;
64011;SDS011;50211;52.768;12.124;2022-09-09T15:03:31;4.72;;;1.52;;
64011;SDS011;50211;52.768;12.124;2022-09-09T15:05:57;5.18;;;2.05;;
64011;SDS011;50211;52.768;12.124;2022-09-09T15:08:23;4.00;;;1.40;;
64011;SDS011;50211;52.768;12.124;2022-09-09T15:10:49;1.98;;;0.93;;
64011;SDS011;50211;52.768;12.124;2022-09-09T15:13:15;14.85;;;1.10;;
64011;SDS011;50211;52.768;12.124;2022-09-09T15:15:42;5.07;;;1.13;;
64011;SDS011;50211;52.768;12.124;2022-09-09T15:18:08;3.50;;;0.75;;
64011;SDS011;50211;52.768;12.124;2022-09-09T15:20:33;2.13;;;0.95;;
64011;SDS011;50211;52.768;12.124;2022-09-09T15:23:00;2.42;;;1.00;;
64011;SDS011;50211;52.768;12.124;2022-09-09T15:25:26;1.73;;;0.80;;
64011;SDS011;50211;52.768;12.124;2022-09-09T15:27:51;3.80;;;1.10;;
64011;SDS011;50211;52.768;12.124;2022-09-09T15:30:17;2.92;;;1.00;;
64011;SDS011;50211;52.768;12.124;2022-09-09T15:32:42;4.90;;;0.95;;
64011;SDS011;50211;52.768;12.124;2022-09-09T15:35:08;4.22;;;0.88;;
64011;SDS011;50211;52.768;12.124;2022-09-09T15:37:33;2.83;;;0.77;;
64011;SDS011;50211;52.768;12.124;2022-09-09T15:39:59;6.38;;;1.00;;
64011;SDS011;50211;52.768;12.124;2022-09-09T15:42:25;2.40;;;0.90;;
64011;SDS011;50211;52.768;12.124;2022-09-09T15:44:51;5.03;;;1.15;;
64011;SDS011;50211;52.768;12.124;2022-09-09T15:47:17;2.45;;;0.95;;
64011;SDS011;50211;52.768;12.124;2022-09-09T15:49:42;5.00;;;1.38;;
64011;SDS011;50211;52.768;12.124;2022-09-09T15:52:08;3.00;;;0.90;;
64011;SDS011;50211;52.768;12.124;2022-09-09T15:54:36;2.20;;;0.70;;
64011;SDS011;50211;52.768;12.124;2022-09-09T15:57:04;4.00;;;0.95;;
64011;SDS011;50211;52.768;12.124;2022-09-09T15:59:31;5.72;;;0.98;;
64011;SDS011;50211;52.768;12.124;2022-09-09T16:01:58;5.07;;;0.73;;